DTA564 FNBJ-DNMM
Flight info
| Callsign | DTA564 |
|---|---|
| Flight time | 2h 36m |
| Altitude | 36000 |
| Route | VBJ DCT VNA UR526 LV UG856 LAG |
| Aircraft | B77W/H-SDE1E2E3FGHIJ2J3J4J5M1RWXY/LB1D1 |
Departure
| Time | 2026-04-25 23:58 |
|---|---|
| Airport | Dr. Antonio Agostinho Neto International Airport (FNBJ) |
Arrival
| Time | 2026-04-26 02:34 |
|---|---|
| Airport | Murtala Muhammed International Airport (DNMM) |
| Time | Latitude | Longitude | Altitude | Speed | Heading |
|---|---|---|---|---|---|
| 2026-04-25 23:10 | -9.05485 | 13.49902 | 543 ft | 0 kts | 323° |
| 2026-04-25 23:44 | -9.05495 | 13.49910 | 546 ft | 3 kts | 323° |
| 2026-04-25 23:45 | -9.05512 | 13.49922 | 544 ft | 3 kts | 323° |
| 2026-04-25 23:45 | -9.05524 | 13.49932 | 547 ft | 2 kts | 320° |
| 2026-04-25 23:45 | -9.05536 | 13.49944 | 548 ft | 3 kts | 280° |
| 2026-04-25 23:45 | -9.05534 | 13.49961 | 551 ft | 3 kts | 237° |
| 2026-04-25 23:46 | -9.05522 | 13.49977 | 554 ft | 2 kts | 232° |
| 2026-04-25 23:46 | -9.05519 | 13.49981 | 554 ft | 0 kts | 233° |
| 2026-04-25 23:48 | -9.05519 | 13.49980 | 554 ft | 0 kts | 233° |
| 2026-04-25 23:49 | -9.05530 | 13.49967 | 552 ft | 3 kts | 233° |
| 2026-04-25 23:49 | -9.05543 | 13.49948 | 550 ft | 3 kts | 233° |
| 2026-04-25 23:49 | -9.05558 | 13.49929 | 547 ft | 5 kts | 233° |
| 2026-04-25 23:49 | -9.05585 | 13.49893 | 541 ft | 8 kts | 233° |
| 2026-04-25 23:50 | -9.05618 | 13.49849 | 539 ft | 8 kts | 233° |
| 2026-04-25 23:50 | -9.05651 | 13.49804 | 541 ft | 8 kts | 233° |
| 2026-04-25 23:50 | -9.05688 | 13.49763 | 541 ft | 8 kts | 204° |
| 2026-04-25 23:50 | -9.05740 | 13.49781 | 541 ft | 8 kts | 143° |
| 2026-04-25 23:51 | -9.05786 | 13.49816 | 543 ft | 8 kts | 143° |
| 2026-04-25 23:51 | -9.05831 | 13.49851 | 542 ft | 8 kts | 143° |
| 2026-04-25 23:51 | -9.05877 | 13.49886 | 542 ft | 8 kts | 143° |
| 2026-04-25 23:51 | -9.05922 | 13.49921 | 542 ft | 8 kts | 143° |
| 2026-04-25 23:52 | -9.05968 | 13.49956 | 541 ft | 8 kts | 143° |
| 2026-04-25 23:52 | -9.06014 | 13.49991 | 542 ft | 8 kts | 143° |
| 2026-04-25 23:52 | -9.06051 | 13.50036 | 542 ft | 9 kts | 92° |
| 2026-04-25 23:52 | -9.06009 | 13.50108 | 542 ft | 15 kts | 53° |
| 2026-04-25 23:53 | -9.05932 | 13.50213 | 542 ft | 21 kts | 53° |
| 2026-04-25 23:53 | -9.05842 | 13.50335 | 542 ft | 22 kts | 53° |
| 2026-04-25 23:53 | -9.05753 | 13.50458 | 543 ft | 22 kts | 53° |
| 2026-04-25 23:53 | -9.05663 | 13.50580 | 544 ft | 22 kts | 53° |
| 2026-04-25 23:54 | -9.05573 | 13.50703 | 545 ft | 22 kts | 53° |
| 2026-04-25 23:54 | -9.05484 | 13.50825 | 545 ft | 22 kts | 53° |
| 2026-04-25 23:54 | -9.05394 | 13.50947 | 545 ft | 22 kts | 53° |
| 2026-04-25 23:54 | -9.05303 | 13.51069 | 545 ft | 22 kts | 53° |
| 2026-04-25 23:55 | -9.05214 | 13.51191 | 545 ft | 22 kts | 53° |
| 2026-04-25 23:55 | -9.05124 | 13.51313 | 545 ft | 22 kts | 53° |
| 2026-04-25 23:55 | -9.05035 | 13.51434 | 546 ft | 22 kts | 53° |
| 2026-04-25 23:55 | -9.04946 | 13.51556 | 547 ft | 22 kts | 53° |
| 2026-04-25 23:56 | -9.04855 | 13.51678 | 548 ft | 22 kts | 53° |
| 2026-04-25 23:56 | -9.04809 | 13.51810 | 558 ft | 20 kts | 123° |
| 2026-04-25 23:56 | -9.04922 | 13.51880 | 564 ft | 15 kts | 153° |
| 2026-04-25 23:56 | -9.05008 | 13.51853 | 564 ft | 15 kts | 229° |
| 2026-04-25 23:57 | -9.05092 | 13.51734 | 561 ft | 41 kts | 234° |
| 2026-04-25 23:57 | -9.05405 | 13.51285 | 558 ft | 113 kts | 234° |
| 2026-04-25 23:57 | -9.05982 | 13.50455 | 543 ft | 173 kts | 235° |
| 2026-04-25 23:57 | -9.06709 | 13.49402 | 928 ft | 184 kts | 234° |
| 2026-04-25 23:58 | -9.07491 | 13.48373 | 1476 ft | 188 kts | 240° |
| 2026-04-25 23:58 | -9.07661 | 13.47063 | 1935 ft | 197 kts | 288° |
| 2026-04-25 23:58 | -9.06814 | 13.45977 | 2313 ft | 208 kts | 333° |
| 2026-04-25 23:58 | -9.05357 | 13.45738 | 2492 ft | 224 kts | 13° |
| 2026-04-25 23:59 | -9.03756 | 13.45981 | 2679 ft | 244 kts | 356° |
| 2026-04-25 23:59 | -9.02169 | 13.45295 | 3114 ft | 260 kts | 318° |
| 2026-04-25 23:59 | -9.01065 | 13.43799 | 3546 ft | 272 kts | 302° |
| 2026-04-25 23:59 | -9.00063 | 13.42132 | 4020 ft | 281 kts | 304° |
| 2026-04-26 00:00 | -8.98919 | 13.40519 | 4631 ft | 286 kts | 310° |
| 2026-04-26 00:00 | -8.97645 | 13.38955 | 5375 ft | 289 kts | 313° |
| 2026-04-26 00:00 | -8.96314 | 13.37427 | 6158 ft | 290 kts | 314° |
| 2026-04-26 00:00 | -8.94947 | 13.35908 | 6841 ft | 294 kts | 315° |
| 2026-04-26 00:01 | -8.93568 | 13.34402 | 7521 ft | 296 kts | 315° |
| 2026-04-26 00:01 | -8.92158 | 13.32870 | 8199 ft | 299 kts | 315° |
| 2026-04-26 00:01 | -8.90731 | 13.31327 | 8908 ft | 302 kts | 315° |
| 2026-04-26 00:01 | -8.89288 | 13.29767 | 9599 ft | 305 kts | 315° |
| 2026-04-26 00:02 | -8.87833 | 13.28196 | 10216 ft | 309 kts | 315° |
| 2026-04-26 00:02 | -8.86318 | 13.26562 | 10506 ft | 328 kts | 315° |
| 2026-04-26 00:02 | -8.84575 | 13.24982 | 10653 ft | 346 kts | 326° |
| 2026-04-26 00:02 | -8.82456 | 13.23690 | 10810 ft | 366 kts | 335° |
| 2026-04-26 00:03 | -8.80078 | 13.22600 | 11078 ft | 383 kts | 339° |
| 2026-04-26 00:03 | -8.77571 | 13.21587 | 11645 ft | 392 kts | 341° |
| 2026-04-26 00:03 | -8.75006 | 13.20582 | 12362 ft | 397 kts | 341° |
| 2026-04-26 00:03 | -8.72449 | 13.19572 | 13184 ft | 400 kts | 340° |
| 2026-04-26 00:04 | -8.69848 | 13.18525 | 13960 ft | 404 kts | 340° |
| 2026-04-26 00:04 | -8.67230 | 13.17453 | 14679 ft | 408 kts | 339° |
| 2026-04-26 00:04 | -8.64596 | 13.16361 | 15375 ft | 411 kts | 339° |
| 2026-04-26 00:04 | -8.61941 | 13.15252 | 16076 ft | 414 kts | 339° |
| 2026-04-26 00:05 | -8.59265 | 13.14131 | 16762 ft | 418 kts | 339° |
| 2026-04-26 00:05 | -8.56562 | 13.12997 | 17446 ft | 422 kts | 339° |
| 2026-04-26 00:05 | -8.53838 | 13.11855 | 18093 ft | 426 kts | 339° |
| 2026-04-26 00:05 | -8.51082 | 13.10701 | 18663 ft | 430 kts | 339° |
| 2026-04-26 00:06 | -8.48299 | 13.09537 | 19215 ft | 434 kts | 339° |
| 2026-04-26 00:06 | -8.45492 | 13.08364 | 19758 ft | 438 kts | 339° |
| 2026-04-26 00:06 | -8.42662 | 13.07183 | 20304 ft | 442 kts | 339° |
| 2026-04-26 00:06 | -8.39806 | 13.05990 | 20836 ft | 446 kts | 339° |
| 2026-04-26 00:07 | -8.36925 | 13.04788 | 21369 ft | 450 kts | 339° |
| 2026-04-26 00:07 | -8.34061 | 13.03593 | 21873 ft | 454 kts | 339° |
| 2026-04-26 00:07 | -8.31130 | 13.02371 | 22384 ft | 457 kts | 339° |
| 2026-04-26 00:07 | -8.28173 | 13.01137 | 22878 ft | 461 kts | 339° |
| 2026-04-26 00:08 | -8.25278 | 12.99929 | 23345 ft | 465 kts | 339° |
| 2026-04-26 00:08 | -8.22282 | 12.98680 | 23779 ft | 469 kts | 339° |
| 2026-04-26 00:08 | -8.19260 | 12.97420 | 24184 ft | 471 kts | 339° |
| 2026-04-26 00:08 | -8.16218 | 12.96150 | 24618 ft | 473 kts | 339° |
| 2026-04-26 00:09 | -8.13169 | 12.94878 | 25040 ft | 475 kts | 339° |
| 2026-04-26 00:09 | -8.10104 | 12.93600 | 25442 ft | 478 kts | 339° |
| 2026-04-26 00:09 | -8.07023 | 12.92317 | 25836 ft | 480 kts | 339° |
| 2026-04-26 00:09 | -8.03925 | 12.91026 | 26225 ft | 483 kts | 339° |
| 2026-04-26 00:10 | -8.00805 | 12.89727 | 26622 ft | 485 kts | 340° |
| 2026-04-26 00:10 | -7.97678 | 12.88426 | 26987 ft | 488 kts | 340° |
| 2026-04-26 00:10 | -7.95595 | 12.87559 | 27229 ft | 489 kts | 340° |
| 2026-04-26 00:10 | -7.91414 | 12.85819 | 27703 ft | 492 kts | 340° |
| 2026-04-26 00:11 | -7.88233 | 12.84495 | 28060 ft | 495 kts | 340° |
| 2026-04-26 00:11 | -7.85043 | 12.83168 | 28394 ft | 497 kts | 340° |
| 2026-04-26 00:11 | -7.81842 | 12.81836 | 28718 ft | 499 kts | 340° |
| 2026-04-26 00:11 | -7.79671 | 12.80933 | 28914 ft | 500 kts | 340° |
| 2026-04-26 00:12 | -7.76483 | 12.79607 | 29209 ft | 502 kts | 340° |
| 2026-04-26 00:12 | -7.73255 | 12.78265 | 29568 ft | 503 kts | 340° |
| 2026-04-26 00:12 | -7.70018 | 12.76918 | 30020 ft | 501 kts | 340° |
| 2026-04-26 00:12 | -7.66811 | 12.75583 | 30494 ft | 497 kts | 340° |
| 2026-04-26 00:13 | -7.63622 | 12.74256 | 30923 ft | 495 kts | 340° |
| 2026-04-26 00:13 | -7.60434 | 12.72931 | 31290 ft | 494 kts | 340° |
| 2026-04-26 00:13 | -7.57251 | 12.71610 | 31645 ft | 494 kts | 340° |
| 2026-04-26 00:13 | -7.54081 | 12.70295 | 32021 ft | 493 kts | 340° |
| 2026-04-26 00:14 | -7.50911 | 12.68979 | 32425 ft | 491 kts | 340° |
| 2026-04-26 00:14 | -7.47754 | 12.67668 | 32822 ft | 490 kts | 340° |
| 2026-04-26 00:14 | -7.44602 | 12.66359 | 33208 ft | 489 kts | 340° |
| 2026-04-26 00:14 | -7.41495 | 12.65069 | 33587 ft | 488 kts | 340° |
| 2026-04-26 00:15 | -7.38356 | 12.63766 | 33945 ft | 487 kts | 340° |
| 2026-04-26 00:15 | -7.32048 | 12.61148 | 33902 ft | 489 kts | 340° |
| 2026-04-26 00:16 | -7.25793 | 12.58552 | 33899 ft | 485 kts | 340° |
| 2026-04-26 00:16 | -7.19564 | 12.55968 | 33908 ft | 483 kts | 340° |
| 2026-04-26 00:17 | -7.13354 | 12.53393 | 33909 ft | 483 kts | 340° |
| 2026-04-26 00:17 | -7.07135 | 12.50815 | 33910 ft | 483 kts | 340° |
| 2026-04-26 00:18 | -7.00903 | 12.48232 | 33908 ft | 485 kts | 340° |
| 2026-04-26 00:18 | -6.94702 | 12.45663 | 33912 ft | 486 kts | 340° |
| 2026-04-26 00:19 | -6.88442 | 12.43068 | 33913 ft | 487 kts | 340° |
| 2026-04-26 00:19 | -6.82174 | 12.40470 | 33906 ft | 488 kts | 340° |
| 2026-04-26 00:20 | -6.75896 | 12.37867 | 33913 ft | 488 kts | 340° |
| 2026-04-26 00:20 | -6.69613 | 12.35264 | 33909 ft | 488 kts | 340° |
| 2026-04-26 00:21 | -6.63327 | 12.32661 | 33909 ft | 488 kts | 340° |
| 2026-04-26 00:21 | -6.57049 | 12.30062 | 33910 ft | 488 kts | 340° |
| 2026-04-26 00:22 | -6.50765 | 12.27460 | 33906 ft | 488 kts | 340° |
| 2026-04-26 00:22 | -6.44487 | 12.24861 | 33910 ft | 487 kts | 340° |
| 2026-04-26 00:23 | -6.38258 | 12.22283 | 33909 ft | 487 kts | 340° |
| 2026-04-26 00:23 | -6.31979 | 12.19686 | 33908 ft | 487 kts | 340° |
| 2026-04-26 00:24 | -6.25686 | 12.17082 | 33907 ft | 491 kts | 340° |
| 2026-04-26 00:24 | -6.19323 | 12.14453 | 34263 ft | 495 kts | 340° |
| 2026-04-26 00:24 | -6.16154 | 12.13142 | 34661 ft | 491 kts | 340° |
| 2026-04-26 00:25 | -6.13005 | 12.11840 | 35061 ft | 488 kts | 340° |
| 2026-04-26 00:25 | -6.09865 | 12.10541 | 35391 ft | 487 kts | 341° |
| 2026-04-26 00:25 | -6.06734 | 12.09247 | 35673 ft | 486 kts | 341° |
| 2026-04-26 00:25 | -6.03605 | 12.07954 | 35846 ft | 487 kts | 341° |
| 2026-04-26 00:26 | -6.00454 | 12.06654 | 35867 ft | 489 kts | 341° |
| 2026-04-26 00:26 | -5.94229 | 12.04084 | 35888 ft | 486 kts | 341° |
| 2026-04-26 00:27 | -5.87970 | 12.01498 | 35906 ft | 485 kts | 341° |
| 2026-04-26 00:27 | -5.81814 | 11.98957 | 35911 ft | 486 kts | 341° |
| 2026-04-26 00:28 | -5.75556 | 11.96376 | 35907 ft | 486 kts | 341° |
| 2026-04-26 00:28 | -5.69290 | 11.93792 | 35907 ft | 487 kts | 341° |
| 2026-04-26 00:29 | -5.63021 | 11.91206 | 35912 ft | 488 kts | 341° |
| 2026-04-26 00:29 | -5.56779 | 11.88631 | 35914 ft | 488 kts | 341° |
| 2026-04-26 00:30 | -5.50494 | 11.86040 | 35906 ft | 487 kts | 341° |
| 2026-04-26 00:30 | -5.44214 | 11.83450 | 35911 ft | 487 kts | 341° |
| 2026-04-26 00:31 | -5.37993 | 11.80886 | 35912 ft | 486 kts | 341° |
| 2026-04-26 00:31 | -5.31742 | 11.78310 | 35908 ft | 485 kts | 341° |
| 2026-04-26 00:32 | -5.25498 | 11.75738 | 35910 ft | 485 kts | 341° |
| 2026-04-26 00:32 | -5.16142 | 11.71881 | 35911 ft | 484 kts | 341° |
| 2026-04-26 00:33 | -5.09911 | 11.69316 | 35911 ft | 484 kts | 341° |
| 2026-04-26 00:33 | -5.03684 | 11.66746 | 35905 ft | 484 kts | 341° |
| 2026-04-26 00:34 | -4.97503 | 11.64193 | 35914 ft | 484 kts | 341° |
| 2026-04-26 00:34 | -4.91262 | 11.61613 | 35918 ft | 485 kts | 341° |
| 2026-04-26 00:35 | -4.85014 | 11.59032 | 35916 ft | 486 kts | 341° |
| 2026-04-26 00:35 | -4.78746 | 11.56442 | 35914 ft | 487 kts | 341° |
| 2026-04-26 00:36 | -4.72512 | 11.53869 | 35915 ft | 488 kts | 341° |
| 2026-04-26 00:36 | -4.66226 | 11.51275 | 35910 ft | 489 kts | 341° |
| 2026-04-26 00:37 | -4.59932 | 11.48678 | 35916 ft | 489 kts | 341° |
| 2026-04-26 00:37 | -4.53629 | 11.46077 | 35912 ft | 489 kts | 341° |
| 2026-04-26 00:38 | -4.47328 | 11.43478 | 35919 ft | 489 kts | 342° |
| 2026-04-26 00:38 | -4.41077 | 11.40897 | 35918 ft | 489 kts | 342° |
| 2026-04-26 00:39 | -4.34781 | 11.38302 | 35918 ft | 489 kts | 342° |
| 2026-04-26 00:39 | -4.28480 | 11.35705 | 35919 ft | 488 kts | 342° |
| 2026-04-26 00:40 | -4.22195 | 11.33114 | 35919 ft | 488 kts | 342° |
| 2026-04-26 00:40 | -4.15912 | 11.30524 | 35925 ft | 488 kts | 342° |
| 2026-04-26 00:41 | -4.09633 | 11.27937 | 35918 ft | 488 kts | 341° |
| 2026-04-26 00:41 | -4.03383 | 11.25361 | 35924 ft | 488 kts | 341° |
| 2026-04-26 00:42 | -3.97107 | 11.22775 | 35921 ft | 489 kts | 341° |
| 2026-04-26 00:42 | -3.90815 | 11.20186 | 35925 ft | 489 kts | 342° |
| 2026-04-26 00:43 | -3.84520 | 11.17597 | 35924 ft | 489 kts | 342° |
| 2026-04-26 00:43 | -3.78203 | 11.15000 | 35923 ft | 490 kts | 342° |
| 2026-04-26 00:44 | -3.71893 | 11.12406 | 35935 ft | 489 kts | 341° |
| 2026-04-26 00:44 | -3.65634 | 11.09833 | 35916 ft | 489 kts | 341° |
| 2026-04-26 00:45 | -3.59344 | 11.07245 | 35934 ft | 488 kts | 341° |
| 2026-04-26 00:45 | -3.53058 | 11.04660 | 35919 ft | 488 kts | 341° |
| 2026-04-26 00:46 | -3.46780 | 11.02078 | 35942 ft | 487 kts | 341° |
| 2026-04-26 00:46 | -3.40661 | 10.99564 | 35945 ft | 486 kts | 341° |
| 2026-04-26 00:47 | -3.34404 | 10.96994 | 35941 ft | 486 kts | 341° |
| 2026-04-26 00:47 | -3.28148 | 10.94426 | 35943 ft | 486 kts | 340° |
| 2026-04-26 00:48 | -3.21899 | 10.91856 | 35930 ft | 486 kts | 340° |
| 2026-04-26 00:48 | -3.15634 | 10.89280 | 35926 ft | 486 kts | 340° |
| 2026-04-26 00:49 | -3.09374 | 10.86708 | 35944 ft | 486 kts | 340° |
| 2026-04-26 00:49 | -3.03152 | 10.84155 | 35922 ft | 486 kts | 340° |
| 2026-04-26 00:50 | -2.96898 | 10.81588 | 35920 ft | 487 kts | 340° |
| 2026-04-26 00:50 | -2.90622 | 10.79011 | 35940 ft | 488 kts | 340° |
| 2026-04-26 00:51 | -2.84327 | 10.76426 | 35922 ft | 489 kts | 340° |
| 2026-04-26 00:51 | -2.78026 | 10.73838 | 35944 ft | 490 kts | 340° |
| 2026-04-26 00:52 | -2.71703 | 10.71242 | 35936 ft | 491 kts | 340° |
| 2026-04-26 00:52 | -2.65382 | 10.68647 | 35938 ft | 491 kts | 340° |
| 2026-04-26 00:53 | -2.59059 | 10.66052 | 35933 ft | 492 kts | 340° |
| 2026-04-26 00:53 | -2.52763 | 10.63468 | 35938 ft | 493 kts | 340° |
| 2026-04-26 00:54 | -2.46379 | 10.60848 | 35938 ft | 493 kts | 340° |
| 2026-04-26 00:54 | -2.40061 | 10.58257 | 35941 ft | 494 kts | 340° |
| 2026-04-26 00:55 | -2.33699 | 10.55648 | 35944 ft | 493 kts | 340° |
| 2026-04-26 00:55 | -2.27343 | 10.53040 | 35925 ft | 493 kts | 340° |
| 2026-04-26 00:56 | -2.20991 | 10.50434 | 35939 ft | 493 kts | 340° |
| 2026-04-26 00:56 | -2.14650 | 10.47832 | 35936 ft | 492 kts | 340° |
| 2026-04-26 00:57 | -2.08355 | 10.45249 | 35937 ft | 491 kts | 340° |
| 2026-04-26 00:57 | -2.02030 | 10.42648 | 35938 ft | 491 kts | 340° |
| 2026-04-26 00:58 | -1.95730 | 10.40037 | 35935 ft | 491 kts | 340° |
| 2026-04-26 00:58 | -1.90477 | 10.37858 | 35934 ft | 491 kts | 340° |
| 2026-04-26 00:59 | -1.84174 | 10.35249 | 35936 ft | 490 kts | 340° |
| 2026-04-26 00:59 | -1.77870 | 10.32659 | 35936 ft | 490 kts | 340° |
| 2026-04-26 01:00 | -1.71561 | 10.30084 | 35938 ft | 489 kts | 340° |
| 2026-04-26 01:00 | -1.65266 | 10.27512 | 35933 ft | 489 kts | 340° |
| 2026-04-26 01:01 | -1.58967 | 10.24935 | 35940 ft | 488 kts | 340° |
| 2026-04-26 01:01 | -1.52718 | 10.22377 | 35934 ft | 488 kts | 340° |
| 2026-04-26 01:02 | -1.46422 | 10.19801 | 35926 ft | 489 kts | 340° |
| 2026-04-26 01:02 | -1.40120 | 10.17222 | 35939 ft | 490 kts | 340° |
| 2026-04-26 01:03 | -1.33803 | 10.14637 | 35939 ft | 490 kts | 340° |
| 2026-04-26 01:03 | -1.27523 | 10.12067 | 35917 ft | 491 kts | 340° |
| 2026-04-26 01:04 | -1.21196 | 10.09478 | 35922 ft | 491 kts | 340° |
| 2026-04-26 01:04 | -1.14863 | 10.06887 | 35940 ft | 492 kts | 340° |
| 2026-04-26 01:05 | -1.08523 | 10.04293 | 35921 ft | 492 kts | 340° |
| 2026-04-26 01:05 | -1.02172 | 10.01695 | 35942 ft | 493 kts | 340° |
| 2026-04-26 01:06 | -0.95942 | 9.99146 | 35926 ft | 494 kts | 340° |
| 2026-04-26 01:06 | -0.89582 | 9.96545 | 35921 ft | 494 kts | 340° |
| 2026-04-26 01:07 | -0.83249 | 9.93953 | 35921 ft | 495 kts | 340° |
| 2026-04-26 01:07 | -0.76872 | 9.91345 | 35923 ft | 495 kts | 340° |
| 2026-04-26 01:08 | -0.70489 | 9.88733 | 35919 ft | 495 kts | 340° |
| 2026-04-26 01:08 | -0.64119 | 9.86127 | 35939 ft | 494 kts | 340° |
| 2026-04-26 01:09 | -0.57791 | 9.83538 | 35919 ft | 494 kts | 340° |
| 2026-04-26 01:09 | -0.51423 | 9.80931 | 35927 ft | 494 kts | 340° |
| 2026-04-26 01:10 | -0.45055 | 9.78323 | 35925 ft | 493 kts | 339° |
| 2026-04-26 01:10 | -0.38708 | 9.75722 | 35928 ft | 493 kts | 340° |
| 2026-04-26 01:11 | -0.32366 | 9.73123 | 35924 ft | 492 kts | 340° |
| 2026-04-26 01:11 | -0.26073 | 9.70545 | 35927 ft | 492 kts | 340° |
| 2026-04-26 01:12 | -0.19742 | 9.67952 | 35922 ft | 492 kts | 340° |
| 2026-04-26 01:12 | -0.13408 | 9.65358 | 35921 ft | 492 kts | 340° |
| 2026-04-26 01:13 | -0.07059 | 9.62757 | 35921 ft | 492 kts | 340° |
| 2026-04-26 01:13 | -0.00715 | 9.60159 | 35920 ft | 492 kts | 339° |
| 2026-04-26 01:14 | 0.05623 | 9.57563 | 35917 ft | 493 kts | 339° |
| 2026-04-26 01:14 | 0.11973 | 9.54962 | 35920 ft | 493 kts | 339° |
| 2026-04-26 01:15 | 0.18292 | 9.52373 | 35915 ft | 494 kts | 339° |
| 2026-04-26 01:15 | 0.24656 | 9.49765 | 35917 ft | 494 kts | 339° |
| 2026-04-26 01:16 | 0.31026 | 9.47155 | 35912 ft | 494 kts | 339° |
| 2026-04-26 01:16 | 0.37390 | 9.44548 | 35914 ft | 494 kts | 339° |
| 2026-04-26 01:17 | 0.43741 | 9.41928 | 35909 ft | 494 kts | 338° |
| 2026-04-26 01:17 | 0.49674 | 9.38659 | 35898 ft | 486 kts | 323° |
| 2026-04-26 01:18 | 0.54488 | 9.33869 | 35932 ft | 495 kts | 313° |
| 2026-04-26 01:18 | 0.59147 | 9.28878 | 35933 ft | 491 kts | 317° |
| 2026-04-26 01:19 | 0.64231 | 9.24212 | 35930 ft | 500 kts | 319° |
| 2026-04-26 01:19 | 0.69390 | 9.19473 | 35900 ft | 501 kts | 318° |
| 2026-04-26 01:20 | 0.74385 | 9.14690 | 35892 ft | 494 kts | 317° |
| 2026-04-26 01:20 | 0.79300 | 9.09895 | 35896 ft | 492 kts | 317° |
| 2026-04-26 01:21 | 0.84172 | 9.05145 | 35906 ft | 491 kts | 317° |
| 2026-04-26 01:21 | 0.89072 | 9.00390 | 35904 ft | 491 kts | 317° |
| 2026-04-26 01:22 | 0.93901 | 8.95712 | 35907 ft | 491 kts | 317° |
| 2026-04-26 01:22 | 0.98813 | 8.90952 | 35908 ft | 491 kts | 317° |
| 2026-04-26 01:23 | 1.03716 | 8.86198 | 35901 ft | 492 kts | 317° |
| 2026-04-26 01:23 | 1.08643 | 8.81420 | 35906 ft | 493 kts | 317° |
| 2026-04-26 01:24 | 1.13537 | 8.76674 | 35906 ft | 494 kts | 317° |
| 2026-04-26 01:24 | 1.18470 | 8.71890 | 35902 ft | 494 kts | 317° |
| 2026-04-26 01:25 | 1.23401 | 8.67111 | 35902 ft | 494 kts | 317° |
| 2026-04-26 01:25 | 1.28339 | 8.62336 | 35904 ft | 493 kts | 317° |
| 2026-04-26 01:26 | 1.33273 | 8.57565 | 35898 ft | 493 kts | 317° |
| 2026-04-26 01:26 | 1.38191 | 8.52806 | 35921 ft | 492 kts | 317° |
| 2026-04-26 01:27 | 1.43083 | 8.48071 | 35907 ft | 492 kts | 317° |
| 2026-04-26 01:27 | 1.48000 | 8.43311 | 35911 ft | 491 kts | 317° |
| 2026-04-26 01:28 | 1.52909 | 8.38558 | 35919 ft | 491 kts | 317° |
| 2026-04-26 01:28 | 1.57815 | 8.33809 | 35909 ft | 491 kts | 317° |
| 2026-04-26 01:29 | 1.62715 | 8.29065 | 35900 ft | 490 kts | 317° |
| 2026-04-26 01:29 | 1.67614 | 8.24320 | 35908 ft | 490 kts | 317° |
| 2026-04-26 01:30 | 1.72477 | 8.19611 | 35919 ft | 489 kts | 317° |
| 2026-04-26 01:30 | 1.77365 | 8.14877 | 35914 ft | 489 kts | 317° |
| 2026-04-26 01:31 | 1.82252 | 8.10144 | 35907 ft | 489 kts | 317° |
| 2026-04-26 01:31 | 1.87134 | 8.05414 | 35912 ft | 489 kts | 317° |
| 2026-04-26 01:32 | 1.92022 | 8.00679 | 35912 ft | 489 kts | 317° |
| 2026-04-26 01:32 | 1.96838 | 7.96023 | 35915 ft | 489 kts | 317° |
| 2026-04-26 01:33 | 2.01727 | 7.91303 | 35915 ft | 489 kts | 317° |
| 2026-04-26 01:33 | 2.06628 | 7.86567 | 35915 ft | 489 kts | 317° |
| 2026-04-26 01:34 | 2.11524 | 7.81834 | 35915 ft | 489 kts | 316° |
| 2026-04-26 01:34 | 2.16388 | 7.77130 | 35912 ft | 489 kts | 316° |
| 2026-04-26 01:35 | 2.21281 | 7.72397 | 35914 ft | 489 kts | 317° |
| 2026-04-26 01:35 | 2.26178 | 7.67661 | 35917 ft | 489 kts | 317° |
| 2026-04-26 01:36 | 2.31075 | 7.62926 | 35915 ft | 489 kts | 316° |
| 2026-04-26 01:37 | 2.38428 | 7.55815 | 35920 ft | 490 kts | 316° |
| 2026-04-26 01:37 | 2.43289 | 7.51110 | 35914 ft | 489 kts | 316° |
| 2026-04-26 01:38 | 2.48212 | 7.46345 | 35925 ft | 489 kts | 316° |
| 2026-04-26 01:38 | 2.53068 | 7.41646 | 35921 ft | 489 kts | 316° |
| 2026-04-26 01:39 | 2.57936 | 7.36894 | 35919 ft | 488 kts | 316° |
| 2026-04-26 01:39 | 2.62790 | 7.32123 | 35917 ft | 488 kts | 316° |
| 2026-04-26 01:40 | 2.67639 | 7.27355 | 35918 ft | 488 kts | 316° |
| 2026-04-26 01:40 | 2.72492 | 7.22590 | 35922 ft | 489 kts | 316° |
| 2026-04-26 01:41 | 2.77322 | 7.17852 | 35919 ft | 490 kts | 316° |
| 2026-04-26 01:41 | 2.82191 | 7.13074 | 35938 ft | 491 kts | 316° |
| 2026-04-26 01:42 | 2.87076 | 7.08280 | 35919 ft | 491 kts | 316° |
| 2026-04-26 01:42 | 2.91958 | 7.03488 | 35941 ft | 491 kts | 316° |
| 2026-04-26 01:43 | 2.96744 | 6.98789 | 35917 ft | 491 kts | 316° |
| 2026-04-26 01:43 | 3.01589 | 6.94030 | 35927 ft | 491 kts | 316° |
| 2026-04-26 01:44 | 3.06469 | 6.89237 | 35916 ft | 491 kts | 316° |
| 2026-04-26 01:44 | 3.11349 | 6.84443 | 35922 ft | 491 kts | 316° |
| 2026-04-26 01:45 | 3.16226 | 6.79652 | 35920 ft | 491 kts | 316° |
| 2026-04-26 01:45 | 3.21128 | 6.74865 | 35940 ft | 491 kts | 316° |
| 2026-04-26 01:46 | 3.26021 | 6.70144 | 35916 ft | 492 kts | 316° |
| 2026-04-26 01:46 | 3.30949 | 6.65391 | 35922 ft | 492 kts | 316° |
| 2026-04-26 01:47 | 3.35048 | 6.61428 | 35914 ft | 492 kts | 317° |
| 2026-04-26 01:47 | 3.39970 | 6.56663 | 35921 ft | 492 kts | 316° |
| 2026-04-26 01:48 | 3.44894 | 6.51897 | 35913 ft | 493 kts | 316° |
| 2026-04-26 01:48 | 3.49834 | 6.47114 | 35910 ft | 492 kts | 316° |
| 2026-04-26 01:49 | 3.54732 | 6.42372 | 35909 ft | 493 kts | 316° |
| 2026-04-26 01:49 | 3.59664 | 6.37596 | 35919 ft | 493 kts | 316° |
| 2026-04-26 01:50 | 3.64600 | 6.32814 | 35911 ft | 494 kts | 316° |
| 2026-04-26 01:50 | 3.69547 | 6.28020 | 35912 ft | 495 kts | 316° |
| 2026-04-26 01:51 | 3.74497 | 6.23224 | 35917 ft | 494 kts | 316° |
| 2026-04-26 01:51 | 3.79436 | 6.18435 | 35906 ft | 494 kts | 316° |
| 2026-04-26 01:52 | 3.84346 | 6.13676 | 35910 ft | 494 kts | 316° |
| 2026-04-26 01:52 | 3.89288 | 6.08882 | 35913 ft | 494 kts | 316° |
| 2026-04-26 01:53 | 3.94241 | 6.04070 | 35911 ft | 495 kts | 316° |
| 2026-04-26 01:53 | 3.99085 | 5.99363 | 35908 ft | 496 kts | 316° |
| 2026-04-26 01:54 | 4.04009 | 5.94578 | 35916 ft | 496 kts | 316° |
| 2026-04-26 01:54 | 4.08957 | 5.89769 | 35908 ft | 496 kts | 316° |
| 2026-04-26 01:55 | 4.13912 | 5.84952 | 35908 ft | 495 kts | 316° |
| 2026-04-26 01:55 | 4.18861 | 5.80141 | 35907 ft | 496 kts | 316° |
| 2026-04-26 01:56 | 4.23808 | 5.75330 | 35903 ft | 495 kts | 316° |
| 2026-04-26 01:56 | 4.28754 | 5.70517 | 35901 ft | 495 kts | 316° |
| 2026-04-26 01:57 | 4.33701 | 5.65705 | 35908 ft | 495 kts | 316° |
| 2026-04-26 01:57 | 4.38612 | 5.60919 | 35899 ft | 495 kts | 316° |
| 2026-04-26 01:58 | 4.43551 | 5.56098 | 35899 ft | 495 kts | 316° |
| 2026-04-26 01:58 | 4.48496 | 5.51269 | 35900 ft | 496 kts | 316° |
| 2026-04-26 01:59 | 4.53442 | 5.46439 | 35903 ft | 496 kts | 316° |
| 2026-04-26 01:59 | 4.58392 | 5.41606 | 35894 ft | 496 kts | 316° |
| 2026-04-26 02:00 | 4.63306 | 5.36805 | 35895 ft | 496 kts | 316° |
| 2026-04-26 02:00 | 4.68253 | 5.31972 | 35898 ft | 496 kts | 316° |
| 2026-04-26 02:01 | 4.73192 | 5.27144 | 35892 ft | 496 kts | 316° |
| 2026-04-26 02:01 | 4.78137 | 5.22310 | 35896 ft | 496 kts | 316° |
| 2026-04-26 02:02 | 4.83056 | 5.17497 | 35887 ft | 497 kts | 316° |
| 2026-04-26 02:02 | 4.87994 | 5.12645 | 35898 ft | 497 kts | 316° |
| 2026-04-26 02:03 | 4.92923 | 5.07792 | 35887 ft | 497 kts | 315° |
| 2026-04-26 02:03 | 4.97854 | 5.02938 | 35906 ft | 496 kts | 315° |
| 2026-04-26 02:04 | 5.02678 | 4.98190 | 35888 ft | 496 kts | 315° |
| 2026-04-26 02:04 | 5.07609 | 4.93337 | 35886 ft | 496 kts | 316° |
| 2026-04-26 02:05 | 5.12534 | 4.88488 | 35905 ft | 496 kts | 316° |
| 2026-04-26 02:05 | 5.17438 | 4.83658 | 35889 ft | 497 kts | 316° |
| 2026-04-26 02:06 | 5.22373 | 4.78799 | 35880 ft | 497 kts | 316° |
| 2026-04-26 02:06 | 5.27305 | 4.73939 | 35901 ft | 497 kts | 316° |
| 2026-04-26 02:07 | 5.32252 | 4.69065 | 35888 ft | 498 kts | 315° |
| 2026-04-26 02:07 | 5.37191 | 4.64198 | 35890 ft | 498 kts | 315° |
| 2026-04-26 02:07 | 5.39666 | 4.61758 | 35632 ft | 497 kts | 315° |
| 2026-04-26 02:08 | 5.42114 | 4.59344 | 35328 ft | 490 kts | 315° |
| 2026-04-26 02:08 | 5.44536 | 4.56955 | 34758 ft | 488 kts | 315° |
| 2026-04-26 02:08 | 5.46929 | 4.54595 | 34110 ft | 489 kts | 315° |
| 2026-04-26 02:08 | 5.49360 | 4.52198 | 33481 ft | 488 kts | 315° |
| 2026-04-26 02:09 | 5.51777 | 4.49814 | 32993 ft | 484 kts | 315° |
| 2026-04-26 02:09 | 5.54164 | 4.47459 | 32586 ft | 478 kts | 315° |
| 2026-04-26 02:09 | 5.56526 | 4.45129 | 32155 ft | 473 kts | 315° |
| 2026-04-26 02:09 | 5.58861 | 4.42824 | 31675 ft | 470 kts | 315° |
| 2026-04-26 02:10 | 5.61184 | 4.40531 | 31165 ft | 467 kts | 315° |
| 2026-04-26 02:10 | 5.63495 | 4.38250 | 30679 ft | 465 kts | 315° |
| 2026-04-26 02:10 | 5.65791 | 4.35984 | 30282 ft | 460 kts | 315° |
| 2026-04-26 02:10 | 5.68061 | 4.33743 | 29837 ft | 456 kts | 315° |
| 2026-04-26 02:11 | 5.70317 | 4.31515 | 29364 ft | 452 kts | 315° |
| 2026-04-26 02:11 | 5.72541 | 4.29319 | 28942 ft | 446 kts | 315° |
| 2026-04-26 02:11 | 5.74717 | 4.27170 | 28501 ft | 442 kts | 315° |
| 2026-04-26 02:11 | 5.76897 | 4.25015 | 27966 ft | 440 kts | 315° |
| 2026-04-26 02:12 | 5.79074 | 4.22863 | 27454 ft | 437 kts | 315° |
| 2026-04-26 02:12 | 5.81231 | 4.20732 | 27062 ft | 432 kts | 315° |
| 2026-04-26 02:12 | 5.83365 | 4.18623 | 26658 ft | 427 kts | 315° |
| 2026-04-26 02:12 | 5.85483 | 4.16532 | 26146 ft | 426 kts | 315° |
| 2026-04-26 02:13 | 5.87590 | 4.14449 | 25752 ft | 422 kts | 315° |
| 2026-04-26 02:13 | 5.89669 | 4.12395 | 25415 ft | 416 kts | 315° |
| 2026-04-26 02:13 | 5.91760 | 4.10400 | 25032 ft | 412 kts | 318° |
| 2026-04-26 02:13 | 5.93944 | 4.08606 | 24525 ft | 401 kts | 323° |
| 2026-04-26 02:14 | 5.96310 | 4.07135 | 23833 ft | 401 kts | 334° |
| 2026-04-26 02:14 | 5.98894 | 4.06058 | 23317 ft | 402 kts | 339° |
| 2026-04-26 02:14 | 6.01455 | 4.05114 | 22856 ft | 391 kts | 338° |
| 2026-04-26 02:14 | 6.03960 | 4.04111 | 22143 ft | 385 kts | 335° |
| 2026-04-26 02:15 | 6.06401 | 4.02959 | 21465 ft | 389 kts | 333° |
| 2026-04-26 02:15 | 6.08810 | 4.01733 | 21061 ft | 386 kts | 332° |
| 2026-04-26 02:15 | 6.11181 | 4.00516 | 20734 ft | 380 kts | 333° |
| 2026-04-26 02:15 | 6.13465 | 3.99363 | 20363 ft | 377 kts | 333° |
| 2026-04-26 02:16 | 6.15815 | 3.98201 | 19899 ft | 376 kts | 334° |
| 2026-04-26 02:16 | 6.18170 | 3.97058 | 19471 ft | 375 kts | 334° |
| 2026-04-26 02:16 | 6.20525 | 3.95928 | 19043 ft | 373 kts | 334° |
| 2026-04-26 02:16 | 6.22862 | 3.94815 | 18691 ft | 370 kts | 334° |
| 2026-04-26 02:17 | 6.25185 | 3.93712 | 18310 ft | 368 kts | 334° |
| 2026-04-26 02:17 | 6.27469 | 3.92630 | 17825 ft | 367 kts | 335° |
| 2026-04-26 02:17 | 6.29778 | 3.91535 | 17377 ft | 366 kts | 335° |
| 2026-04-26 02:17 | 6.32074 | 3.90446 | 16935 ft | 363 kts | 335° |
| 2026-04-26 02:18 | 6.34350 | 3.89365 | 16552 ft | 360 kts | 335° |
| 2026-04-26 02:18 | 6.36609 | 3.88291 | 16157 ft | 357 kts | 335° |
| 2026-04-26 02:18 | 6.38852 | 3.87225 | 15730 ft | 357 kts | 336° |
| 2026-04-26 02:18 | 6.41095 | 3.86158 | 15295 ft | 355 kts | 336° |
| 2026-04-26 02:19 | 6.43324 | 3.85099 | 14897 ft | 354 kts | 336° |
| 2026-04-26 02:19 | 6.45549 | 3.84041 | 14511 ft | 352 kts | 335° |
| 2026-04-26 02:19 | 6.47756 | 3.82993 | 14130 ft | 350 kts | 335° |
| 2026-04-26 02:19 | 6.49951 | 3.81951 | 13765 ft | 348 kts | 336° |
| 2026-04-26 02:20 | 6.52137 | 3.80912 | 13312 ft | 346 kts | 336° |
| 2026-04-26 02:20 | 6.54318 | 3.79875 | 12908 ft | 345 kts | 336° |
| 2026-04-26 02:20 | 6.56482 | 3.78845 | 12492 ft | 344 kts | 336° |
| 2026-04-26 02:20 | 6.58641 | 3.77817 | 12088 ft | 342 kts | 336° |
| 2026-04-26 02:21 | 6.60762 | 3.76808 | 11714 ft | 341 kts | 336° |
| 2026-04-26 02:21 | 6.62900 | 3.75790 | 11312 ft | 339 kts | 336° |
| 2026-04-26 02:21 | 6.65032 | 3.74776 | 10921 ft | 338 kts | 336° |
| 2026-04-26 02:21 | 6.67151 | 3.73768 | 10548 ft | 336 kts | 337° |
| 2026-04-26 02:22 | 6.69268 | 3.72761 | 10177 ft | 335 kts | 337° |
| 2026-04-26 02:22 | 6.71370 | 3.71760 | 9804 ft | 334 kts | 337° |
| 2026-04-26 02:22 | 6.73451 | 3.70770 | 9673 ft | 324 kts | 337° |
| 2026-04-26 02:22 | 6.75434 | 3.69825 | 9576 ft | 313 kts | 337° |
| 2026-04-26 02:23 | 6.77358 | 3.68904 | 9484 ft | 300 kts | 335° |
| 2026-04-26 02:23 | 6.78963 | 3.67623 | 9159 ft | 297 kts | 305° |
| 2026-04-26 02:23 | 6.79681 | 3.65709 | 8889 ft | 292 kts | 277° |
| 2026-04-26 02:23 | 6.79850 | 3.63701 | 8500 ft | 286 kts | 274° |
| 2026-04-26 02:24 | 6.80024 | 3.61692 | 8021 ft | 290 kts | 276° |
| 2026-04-26 02:24 | 6.80257 | 3.59686 | 7766 ft | 286 kts | 277° |
| 2026-04-26 02:24 | 6.80498 | 3.57711 | 7526 ft | 282 kts | 277° |
| 2026-04-26 02:24 | 6.80735 | 3.55752 | 7228 ft | 280 kts | 276° |
| 2026-04-26 02:25 | 6.80960 | 3.53837 | 6795 ft | 272 kts | 276° |
| 2026-04-26 02:25 | 6.81177 | 3.51954 | 6139 ft | 271 kts | 276° |
| 2026-04-26 02:25 | 6.81387 | 3.50093 | 5493 ft | 268 kts | 275° |
| 2026-04-26 02:25 | 6.81595 | 3.48246 | 4956 ft | 264 kts | 275° |
| 2026-04-26 02:26 | 6.81799 | 3.46411 | 4658 ft | 263 kts | 275° |
| 2026-04-26 02:26 | 6.82002 | 3.44573 | 4314 ft | 264 kts | 274° |
| 2026-04-26 02:26 | 6.82205 | 3.42737 | 3987 ft | 264 kts | 274° |
| 2026-04-26 02:26 | 6.82407 | 3.40900 | 3678 ft | 264 kts | 274° |
| 2026-04-26 02:27 | 6.82599 | 3.39074 | 3476 ft | 257 kts | 271° |
| 2026-04-26 02:27 | 6.82648 | 3.37314 | 3429 ft | 247 kts | 266° |
| 2026-04-26 02:27 | 6.82605 | 3.35629 | 3405 ft | 239 kts | 265° |
| 2026-04-26 02:27 | 6.82556 | 3.33986 | 3383 ft | 224 kts | 264° |
| 2026-04-26 02:28 | 6.82185 | 3.32564 | 3389 ft | 205 kts | 234° |
| 2026-04-26 02:28 | 6.81215 | 3.31569 | 3430 ft | 203 kts | 212° |
| 2026-04-26 02:28 | 6.79923 | 3.30997 | 3407 ft | 207 kts | 188° |
| 2026-04-26 02:28 | 6.78498 | 3.31002 | 3432 ft | 206 kts | 178° |
| 2026-04-26 02:29 | 6.77061 | 3.31066 | 3413 ft | 205 kts | 180° |
| 2026-04-26 02:29 | 6.75662 | 3.31089 | 3181 ft | 198 kts | 180° |
| 2026-04-26 02:29 | 6.74294 | 3.31107 | 2719 ft | 196 kts | 180° |
| 2026-04-26 02:29 | 6.72967 | 3.31127 | 2503 ft | 189 kts | 180° |
| 2026-04-26 02:30 | 6.71637 | 3.31149 | 2432 ft | 187 kts | 180° |
| 2026-04-26 02:30 | 6.70389 | 3.31171 | 2418 ft | 170 kts | 180° |
| 2026-04-26 02:30 | 6.69261 | 3.31191 | 2163 ft | 154 kts | 180° |
| 2026-04-26 02:30 | 6.68239 | 3.31205 | 1926 ft | 152 kts | 180° |
| 2026-04-26 02:31 | 6.67176 | 3.31217 | 1918 ft | 153 kts | 180° |
| 2026-04-26 02:31 | 6.66124 | 3.31227 | 1741 ft | 150 kts | 180° |
| 2026-04-26 02:31 | 6.65093 | 3.31238 | 1555 ft | 147 kts | 179° |
| 2026-04-26 02:31 | 6.64063 | 3.31279 | 1301 ft | 148 kts | 179° |
| 2026-04-26 02:32 | 6.63383 | 3.31281 | 1192 ft | 148 kts | 181° |
| 2026-04-26 02:32 | 6.62335 | 3.31281 | 975 ft | 152 kts | 180° |
| 2026-04-26 02:32 | 6.61264 | 3.31289 | 748 ft | 157 kts | 179° |
| 2026-04-26 02:32 | 6.60153 | 3.31310 | 434 ft | 158 kts | 179° |
| 2026-04-26 02:33 | 6.59072 | 3.31325 | 207 ft | 153 kts | 180° |
| 2026-04-26 02:33 | 6.58020 | 3.31335 | 103 ft | 143 kts | 182° |
| 2026-04-26 02:33 | 6.57150 | 3.31335 | 100 ft | 104 kts | 179° |
| 2026-04-26 02:33 | 6.56585 | 3.31341 | 102 ft | 59 kts | 179° |
| 2026-04-26 02:34 | 6.56228 | 3.31346 | 97 ft | 49 kts | 179° |
| 2026-04-26 02:34 | 6.55902 | 3.31349 | 93 ft | 45 kts | 180° |
| 2026-04-26 02:34 | 6.55600 | 3.31352 | 95 ft | 42 kts | 179° |
| 2026-04-26 02:34 | 6.55343 | 3.31357 | 97 ft | 30 kts | 174° |
| 2026-04-26 02:35 | 6.55224 | 3.31482 | 94 ft | 26 kts | 90° |
| 2026-04-26 02:35 | 6.55338 | 3.31560 | 97 ft | 22 kts | 360° |
| 2026-04-26 02:35 | 6.55488 | 3.31558 | 97 ft | 22 kts | 359° |
| 2026-04-26 02:35 | 6.55638 | 3.31556 | 94 ft | 22 kts | 359° |
| 2026-04-26 02:36 | 6.55788 | 3.31554 | 97 ft | 22 kts | 359° |
| 2026-04-26 02:36 | 6.55938 | 3.31552 | 98 ft | 22 kts | 359° |
| 2026-04-26 02:36 | 6.56088 | 3.31551 | 99 ft | 22 kts | 359° |
| 2026-04-26 02:36 | 6.56238 | 3.31549 | 97 ft | 22 kts | 359° |
| 2026-04-26 02:37 | 6.56388 | 3.31548 | 98 ft | 22 kts | 359° |
| 2026-04-26 02:37 | 6.56538 | 3.31546 | 98 ft | 22 kts | 359° |
| 2026-04-26 02:37 | 6.56688 | 3.31543 | 99 ft | 22 kts | 359° |
| 2026-04-26 02:37 | 6.56806 | 3.31542 | 100 ft | 0 kts | 359° |
| 2026-04-26 02:38 | 6.56834 | 3.31541 | 100 ft | 14 kts | 359° |
| 2026-04-26 02:38 | 6.56936 | 3.31540 | 100 ft | 15 kts | 359° |
| 2026-04-26 02:38 | 6.57037 | 3.31539 | 100 ft | 15 kts | 359° |
| 2026-04-26 02:38 | 6.57142 | 3.31538 | 100 ft | 16 kts | 359° |
| 2026-04-26 02:39 | 6.57260 | 3.31536 | 100 ft | 18 kts | 359° |
| 2026-04-26 02:39 | 6.57396 | 3.31535 | 100 ft | 20 kts | 359° |
| 2026-04-26 02:39 | 6.57545 | 3.31533 | 103 ft | 22 kts | 359° |
| 2026-04-26 02:39 | 6.57708 | 3.31531 | 101 ft | 24 kts | 359° |
| 2026-04-26 02:40 | 6.57876 | 3.31529 | 101 ft | 24 kts | 359° |
| 2026-04-26 02:40 | 6.58018 | 3.31534 | 103 ft | 17 kts | 21° |
| 2026-04-26 02:40 | 6.58080 | 3.31635 | 104 ft | 17 kts | 66° |
| 2026-04-26 02:40 | 6.58110 | 3.31743 | 102 ft | 12 kts | 108° |
| 2026-04-26 02:41 | 6.58042 | 3.31794 | 104 ft | 13 kts | 155° |
| 2026-04-26 02:41 | 6.57980 | 3.31825 | 104 ft | 4 kts | 134° |
| 2026-04-26 02:41 | 6.57976 | 3.31851 | 104 ft | 4 kts | 82° |
| 2026-04-26 02:41 | 6.57987 | 3.31877 | 105 ft | 4 kts | 62° |
| 2026-04-26 02:42 | 6.57998 | 3.31900 | 104 ft | 4 kts | 66° |
| 2026-04-26 02:42 | 6.58003 | 3.31910 | 103 ft | 0 kts | 68° |
| 2026-04-26 02:42 | 6.58003 | 3.31911 | 103 ft | 0 kts | 68° |